<?xml version="1.0" encoding="UTF-8" standalone="no" ?>
<gpx xmlns="http://www.topografix.com/GPX/1/1" xmlns:xsi="http://www.w3.org/2001/XMLSchema-instance" xsi:schemaLocation="http://www.topografix.com/GPX/1/1 http://www.topografix.com/GPX/1/1/gpx.xsd" version="1.1" creator="VisuGPX - https://www.visugpx.com">
  <metadata>
    <name>boucles beaumont</name>
    <desc><![CDATA[boucles beaumont du périgord]]></desc>
  </metadata>
  <trk>
    <name><![CDATA[BBmt30]]></name>
    <trkseg>
      <trkpt lat="44.8069" lon="0.8585">
        <ele>184</ele>
        <time>2008-12-16T13:45:48Z</time>
      </trkpt>
      <trkpt lat="44.80684" lon="0.85855">
        <ele>185</ele>
        <time>2008-12-16T13:46:02Z</time>
      </trkpt>
      <trkpt lat="44.80675" lon="0.85798">
        <ele>185</ele>
        <time>2008-12-16T13:46:06Z</time>
      </trkpt>
      <trkpt lat="44.80668" lon="0.8577">
        <ele>184</ele>
        <time>2008-12-16T13:46:10Z</time>
      </trkpt>
      <trkpt lat="44.8066" lon="0.85745">
        <ele>185</ele>
        <time>2008-12-16T13:46:14Z</time>
      </trkpt>
      <trkpt lat="44.8066" lon="0.85715">
        <ele>189</ele>
        <time>2008-12-16T13:46:19Z</time>
      </trkpt>
      <trkpt lat="44.80658" lon="0.85688">
        <ele>192</ele>
        <time>2008-12-16T13:46:23Z</time>
      </trkpt>
      <trkpt lat="44.80655" lon="0.85658">
        <ele>193</ele>
        <time>2008-12-16T13:46:27Z</time>
      </trkpt>
      <trkpt lat="44.80653" lon="0.8563">
        <ele>193</ele>
        <time>2008-12-16T13:46:37Z</time>
      </trkpt>
      <trkpt lat="44.8065" lon="0.85598">
        <ele>191</ele>
        <time>2008-12-16T13:46:41Z</time>
      </trkpt>
      <trkpt lat="44.80648" lon="0.85568">
        <ele>190</ele>
        <time>2008-12-16T13:46:44Z</time>
      </trkpt>
      <trkpt lat="44.80645" lon="0.85533">
        <ele>189</ele>
        <time>2008-12-16T13:46:47Z</time>
      </trkpt>
      <trkpt lat="44.80643" lon="0.85498">
        <ele>188</ele>
        <time>2008-12-16T13:46:50Z</time>
      </trkpt>
      <trkpt lat="44.8064" lon="0.85463">
        <ele>188</ele>
        <time>2008-12-16T13:46:53Z</time>
      </trkpt>
      <trkpt lat="44.80638" lon="0.85433">
        <ele>187</ele>
        <time>2008-12-16T13:46:56Z</time>
      </trkpt>
      <trkpt lat="44.80635" lon="0.85405">
        <ele>186</ele>
        <time>2008-12-16T13:46:59Z</time>
      </trkpt>
      <trkpt lat="44.80643" lon="0.85378">
        <ele>187</ele>
        <time>2008-12-16T13:47:03Z</time>
      </trkpt>
      <trkpt lat="44.8066" lon="0.85353">
        <ele>184</ele>
        <time>2008-12-16T13:47:06Z</time>
      </trkpt>
      <trkpt lat="44.80678" lon="0.8533">
        <ele>181</ele>
        <time>2008-12-16T13:47:09Z</time>
      </trkpt>
      <trkpt lat="44.80698" lon="0.8531">
        <ele>178</ele>
        <time>2008-12-16T13:47:12Z</time>
      </trkpt>
      <trkpt lat="44.80718" lon="0.85315">
        <ele>174</ele>
        <time>2008-12-16T13:47:23Z</time>
      </trkpt>
      <trkpt lat="44.80735" lon="0.85323">
        <ele>172</ele>
        <time>2008-12-16T13:47:31Z</time>
      </trkpt>
      <trkpt lat="44.80755" lon="0.85318">
        <ele>172</ele>
        <time>2008-12-16T13:47:35Z</time>
      </trkpt>
      <trkpt lat="44.80778" lon="0.8531">
        <ele>172</ele>
        <time>2008-12-16T13:47:39Z</time>
      </trkpt>
      <trkpt lat="44.808" lon="0.85313">
        <ele>173</ele>
        <time>2008-12-16T13:47:43Z</time>
      </trkpt>
      <trkpt lat="44.8082" lon="0.85315">
        <ele>173</ele>
        <time>2008-12-16T13:47:46Z</time>
      </trkpt>
      <trkpt lat="44.8084" lon="0.85318">
        <ele>173</ele>
        <time>2008-12-16T13:47:49Z</time>
      </trkpt>
      <trkpt lat="44.8086" lon="0.8532">
        <ele>172</ele>
        <time>2008-12-16T13:47:52Z</time>
      </trkpt>
      <trkpt lat="44.80885" lon="0.85323">
        <ele>172</ele>
        <time>2008-12-16T13:47:56Z</time>
      </trkpt>
      <trkpt lat="44.80905" lon="0.8532">
        <ele>172</ele>
        <time>2008-12-16T13:48:41Z</time>
      </trkpt>
      <trkpt lat="44.80905" lon="0.8529">
        <ele>172</ele>
        <time>2008-12-16T13:48:47Z</time>
      </trkpt>
      <trkpt lat="44.80905" lon="0.8526">
        <ele>173</ele>
        <time>2008-12-16T13:48:53Z</time>
      </trkpt>
      <trkpt lat="44.80898" lon="0.85235">
        <ele>174</ele>
        <time>2008-12-16T13:49:01Z</time>
      </trkpt>
      <trkpt lat="44.80885" lon="0.85215">
        <ele>175</ele>
        <time>2008-12-16T13:49:07Z</time>
      </trkpt>
      <trkpt lat="44.80888" lon="0.85188">
        <ele>175</ele>
        <time>2008-12-16T13:49:12Z</time>
      </trkpt>
      <trkpt lat="44.80895" lon="0.85163">
        <ele>172</ele>
        <time>2008-12-16T13:49:40Z</time>
      </trkpt>
      <trkpt lat="44.8091" lon="0.85138">
        <ele>171</ele>
        <time>2008-12-16T13:49:45Z</time>
      </trkpt>
      <trkpt lat="44.80925" lon="0.85118">
        <ele>172</ele>
        <time>2008-12-16T13:49:49Z</time>
      </trkpt>
      <trkpt lat="44.8094" lon="0.85103">
        <ele>173</ele>
        <time>2008-12-16T13:49:53Z</time>
      </trkpt>
      <trkpt lat="44.80955" lon="0.85088">
        <ele>175</ele>
        <time>2008-12-16T13:49:57Z</time>
      </trkpt>
      <trkpt lat="44.80973" lon="0.85075">
        <ele>173</ele>
        <time>2008-12-16T13:50:03Z</time>
      </trkpt>
      <trkpt lat="44.8099" lon="0.85068">
        <ele>173</ele>
        <time>2008-12-16T13:50:15Z</time>
      </trkpt>
      <trkpt lat="44.81008" lon="0.85055">
        <ele>176</ele>
        <time>2008-12-16T13:50:19Z</time>
      </trkpt>
      <trkpt lat="44.81025" lon="0.85045">
        <ele>180</ele>
        <time>2008-12-16T13:50:23Z</time>
      </trkpt>
      <trkpt lat="44.81043" lon="0.85035">
        <ele>181</ele>
        <time>2008-12-16T13:50:27Z</time>
      </trkpt>
      <trkpt lat="44.81063" lon="0.85023">
        <ele>186</ele>
        <time>2008-12-16T13:50:32Z</time>
      </trkpt>
      <trkpt lat="44.8108" lon="0.8501">
        <ele>191</ele>
        <time>2008-12-16T13:50:37Z</time>
      </trkpt>
      <trkpt lat="44.811" lon="0.84995">
        <ele>193</ele>
        <time>2008-12-16T13:50:42Z</time>
      </trkpt>
      <trkpt lat="44.8112" lon="0.8498">
        <ele>196</ele>
        <time>2008-12-16T13:50:47Z</time>
      </trkpt>
      <trkpt lat="44.81138" lon="0.84963">
        <ele>195</ele>
        <time>2008-12-16T13:50:52Z</time>
      </trkpt>
      <trkpt lat="44.81155" lon="0.84948">
        <ele>195</ele>
        <time>2008-12-16T13:50:57Z</time>
      </trkpt>
      <trkpt lat="44.81173" lon="0.84938">
        <ele>195</ele>
        <time>2008-12-16T13:51:02Z</time>
      </trkpt>
      <trkpt lat="44.81193" lon="0.84928">
        <ele>189</ele>
        <time>2008-12-16T13:51:07Z</time>
      </trkpt>
      <trkpt lat="44.81213" lon="0.84923">
        <ele>149</ele>
        <time>2008-12-16T13:53:11Z</time>
      </trkpt>
    </trkseg>
  </trk>
</gpx>